sensor_id;sensor_type;location;lat;lon;timestamp;temperature;humidity
28763;DHT22;15918;51.270;6.522;2022-08-19T00:00:45;24.70;57.30
28763;DHT22;15918;51.270;6.522;2022-08-19T00:03:11;24.70;57.40
28763;DHT22;15918;51.270;6.522;2022-08-19T00:05:37;24.60;57.30
28763;DHT22;15918;51.270;6.522;2022-08-19T00:08:02;24.60;57.30
28763;DHT22;15918;51.270;6.522;2022-08-19T00:10:28;24.60;57.30
28763;DHT22;15918;51.270;6.522;2022-08-19T00:12:54;24.60;57.30
28763;DHT22;15918;51.270;6.522;2022-08-19T00:15:21;24.60;57.30
28763;DHT22;15918;51.270;6.522;2022-08-19T00:17:47;24.60;57.30
28763;DHT22;15918;51.270;6.522;2022-08-19T00:20:15;24.60;57.30
28763;DHT22;15918;51.270;6.522;2022-08-19T00:22:43;24.60;57.30
28763;DHT22;15918;51.270;6.522;2022-08-19T00:25:10;24.60;57.30
28763;DHT22;15918;51.270;6.522;2022-08-19T00:27:36;24.60;57.30
28763;DHT22;15918;51.270;6.522;2022-08-19T00:30:04;24.50;57.20
28763;DHT22;15918;51.270;6.522;2022-08-19T00:32:30;24.50;57.20
28763;DHT22;15918;51.270;6.522;2022-08-19T00:34:56;24.50;57.20
28763;DHT22;15918;51.270;6.522;2022-08-19T00:37:23;24.50;57.20
28763;DHT22;15918;51.270;6.522;2022-08-19T00:39:50;24.50;57.30
28763;DHT22;15918;51.270;6.522;2022-08-19T00:42:17;24.40;57.20
28763;DHT22;15918;51.270;6.522;2022-08-19T00:44:43;24.40;57.30
28763;DHT22;15918;51.270;6.522;2022-08-19T00:47:12;24.40;57.30
28763;DHT22;15918;51.270;6.522;2022-08-19T00:49:43;24.40;57.30
28763;DHT22;15918;51.270;6.522;2022-08-19T00:52:18;24.40;57.30
28763;DHT22;15918;51.270;6.522;2022-08-19T00:54:45;24.40;57.30
28763;DHT22;15918;51.270;6.522;2022-08-19T00:57:15;24.40;57.30
28763;DHT22;15918;51.270;6.522;2022-08-19T00:59:44;24.40;57.30
28763;DHT22;15918;51.270;6.522;2022-08-19T01:02:12;24.30;57.20
28763;DHT22;15918;51.270;6.522;2022-08-19T01:04:38;24.30;57.20
28763;DHT22;15918;51.270;6.522;2022-08-19T01:07:03;24.30;57.20
28763;DHT22;15918;51.270;6.522;2022-08-19T01:09:29;24.30;57.30
28763;DHT22;15918;51.270;6.522;2022-08-19T01:11:57;24.30;57.30
28763;DHT22;15918;51.270;6.522;2022-08-19T01:14:23;24.30;57.30
28763;DHT22;15918;51.270;6.522;2022-08-19T01:16:50;24.30;57.30
28763;DHT22;15918;51.270;6.522;2022-08-19T01:19:26;24.30;57.30
28763;DHT22;15918;51.270;6.522;2022-08-19T01:22:03;24.30;57.30
28763;DHT22;15918;51.270;6.522;2022-08-19T01:24:31;24.30;57.30
28763;DHT22;15918;51.270;6.522;2022-08-19T01:26:57;24.20;57.90
28763;DHT22;15918;51.270;6.522;2022-08-19T01:29:23;24.20;57.30
28763;DHT22;15918;51.270;6.522;2022-08-19T01:31:49;24.20;57.30
28763;DHT22;15918;51.270;6.522;2022-08-19T01:34:18;24.20;57.40
28763;DHT22;15918;51.270;6.522;2022-08-19T01:36:45;24.20;57.40
28763;DHT22;15918;51.270;6.522;2022-08-19T01:39:15;24.20;57.40
28763;DHT22;15918;51.270;6.522;2022-08-19T01:41:42;24.10;57.30
28763;DHT22;15918;51.270;6.522;2022-08-19T01:44:09;24.20;57.40
28763;DHT22;15918;51.270;6.522;2022-08-19T01:46:36;24.10;57.40
28763;DHT22;15918;51.270;6.522;2022-08-19T01:49:04;24.10;57.40
28763;DHT22;15918;51.270;6.522;2022-08-19T01:51:30;24.10;57.40
28763;DHT22;15918;51.270;6.522;2022-08-19T01:53:57;24.10;57.40
28763;DHT22;15918;51.270;6.522;2022-08-19T01:56:24;24.10;57.40
28763;DHT22;15918;51.270;6.522;2022-08-19T01:58:56;24.00;57.40
28763;DHT22;15918;51.270;6.522;2022-08-19T02:01:23;24.10;57.50
28763;DHT22;15918;51.270;6.522;2022-08-19T02:03:48;24.00;57.50
28763;DHT22;15918;51.270;6.522;2022-08-19T02:06:14;24.00;57.50
28763;DHT22;15918;51.270;6.522;2022-08-19T02:08:42;24.00;57.50
28763;DHT22;15918;51.270;6.522;2022-08-19T02:11:18;24.00;57.40
28763;DHT22;15918;51.270;6.522;2022-08-19T02:13:44;24.00;57.40
28763;DHT22;15918;51.270;6.522;2022-08-19T02:16:10;24.00;57.50
28763;DHT22;15918;51.270;6.522;2022-08-19T02:18:35;23.90;57.50
28763;DHT22;15918;51.270;6.522;2022-08-19T02:21:01;23.90;57.60
28763;DHT22;15918;51.270;6.522;2022-08-19T02:23:27;23.90;57.60
28763;DHT22;15918;51.270;6.522;2022-08-19T02:25:52;24.00;57.70
28763;DHT22;15918;51.270;6.522;2022-08-19T02:28:18;23.90;57.70
28763;DHT22;15918;51.270;6.522;2022-08-19T02:30:43;23.90;57.80
28763;DHT22;15918;51.270;6.522;2022-08-19T02:33:09;23.90;57.80
28763;DHT22;15918;51.270;6.522;2022-08-19T02:35:34;23.90;57.90
28763;DHT22;15918;51.270;6.522;2022-08-19T02:38:00;23.90;57.90
28763;DHT22;15918;51.270;6.522;2022-08-19T02:40:52;23.90;57.90
28763;DHT22;15918;51.270;6.522;2022-08-19T02:43:19;23.90;57.90
28763;DHT22;15918;51.270;6.522;2022-08-19T02:45:48;23.80;58.00
28763;DHT22;15918;51.270;6.522;2022-08-19T02:48:18;23.90;58.00
28763;DHT22;15918;51.270;6.522;2022-08-19T02:50:45;23.80;58.00
28763;DHT22;15918;51.270;6.522;2022-08-19T02:53:11;23.80;58.10
28763;DHT22;15918;51.270;6.522;2022-08-19T02:55:46;23.80;58.20
28763;DHT22;15918;51.270;6.522;2022-08-19T02:58:12;23.80;58.20
28763;DHT22;15918;51.270;6.522;2022-08-19T03:00:42;23.80;58.20
28763;DHT22;15918;51.270;6.522;2022-08-19T03:03:08;23.80;58.20
28763;DHT22;15918;51.270;6.522;2022-08-19T03:05:34;23.80;58.20
28763;DHT22;15918;51.270;6.522;2022-08-19T03:08:00;23.80;58.20
28763;DHT22;15918;51.270;6.522;2022-08-19T03:10:25;23.80;58.20
28763;DHT22;15918;51.270;6.522;2022-08-19T03:12:51;23.80;58.20
28763;DHT22;15918;51.270;6.522;2022-08-19T03:15:16;23.80;58.20
28763;DHT22;15918;51.270;6.522;2022-08-19T03:17:42;23.80;58.20
28763;DHT22;15918;51.270;6.522;2022-08-19T03:20:08;23.80;58.20
28763;DHT22;15918;51.270;6.522;2022-08-19T03:22:33;23.70;58.10
28763;DHT22;15918;51.270;6.522;2022-08-19T03:24:59;23.80;58.20
28763;DHT22;15918;51.270;6.522;2022-08-19T03:27:25;23.70;58.10
28763;DHT22;15918;51.270;6.522;2022-08-19T03:29:50;23.70;58.20
28763;DHT22;15918;51.270;6.522;2022-08-19T03:32:16;23.70;58.20
28763;DHT22;15918;51.270;6.522;2022-08-19T03:34:42;23.70;58.30
28763;DHT22;15918;51.270;6.522;2022-08-19T03:37:11;23.70;58.40
28763;DHT22;15918;51.270;6.522;2022-08-19T03:39:41;23.70;58.40
28763;DHT22;15918;51.270;6.522;2022-08-19T03:42:08;23.70;58.40
28763;DHT22;15918;51.270;6.522;2022-08-19T03:44:34;23.70;58.40
28763;DHT22;15918;51.270;6.522;2022-08-19T03:47:01;23.70;58.50
28763;DHT22;15918;51.270;6.522;2022-08-19T03:49:29;23.70;58.50
28763;DHT22;15918;51.270;6.522;2022-08-19T03:51:57;23.60;58.50
28763;DHT22;15918;51.270;6.522;2022-08-19T03:54:24;23.60;58.50
28763;DHT22;15918;51.270;6.522;2022-08-19T03:56:53;23.60;58.60
28763;DHT22;15918;51.270;6.522;2022-08-19T03:59:26;23.70;58.70
28763;DHT22;15918;51.270;6.522;2022-08-19T04:01:54;23.60;58.70
28763;DHT22;15918;51.270;6.522;2022-08-19T04:04:21;23.60;58.70
28763;DHT22;15918;51.270;6.522;2022-08-19T04:06:47;23.60;58.70
28763;DHT22;15918;51.270;6.522;2022-08-19T04:09:13;23.60;58.80
28763;DHT22;15918;51.270;6.522;2022-08-19T04:11:51;23.50;58.80
28763;DHT22;15918;51.270;6.522;2022-08-19T04:14:21;23.60;58.80
28763;DHT22;15918;51.270;6.522;2022-08-19T04:16:48;23.60;59.00
28763;DHT22;15918;51.270;6.522;2022-08-19T04:19:15;23.50;59.00
28763;DHT22;15918;51.270;6.522;2022-08-19T04:21:45;23.50;59.00
28763;DHT22;15918;51.270;6.522;2022-08-19T04:24:11;23.50;59.00
28763;DHT22;15918;51.270;6.522;2022-08-19T04:26:37;23.60;59.10
28763;DHT22;15918;51.270;6.522;2022-08-19T04:32:01;23.50;59.10
28763;DHT22;15918;51.270;6.522;2022-08-19T04:34:28;23.50;59.20
28763;DHT22;15918;51.270;6.522;2022-08-19T04:36:56;23.40;59.20
28763;DHT22;15918;51.270;6.522;2022-08-19T04:39:29;23.50;59.30
28763;DHT22;15918;51.270;6.522;2022-08-19T04:42:15;23.40;59.40
28763;DHT22;15918;51.270;6.522;2022-08-19T04:44:59;23.40;59.50
28763;DHT22;15918;51.270;6.522;2022-08-19T04:47:25;23.50;59.60
28763;DHT22;15918;51.270;6.522;2022-08-19T04:49:51;23.40;59.60
28763;DHT22;15918;51.270;6.522;2022-08-19T04:52:17;23.40;59.70
28763;DHT22;15918;51.270;6.522;2022-08-19T04:54:42;23.40;59.80
28763;DHT22;15918;51.270;6.522;2022-08-19T04:57:08;23.40;59.80
28763;DHT22;15918;51.270;6.522;2022-08-19T04:59:35;23.40;59.90
28763;DHT22;15918;51.270;6.522;2022-08-19T05:02:02;23.40;60.00
28763;DHT22;15918;51.270;6.522;2022-08-19T05:04:28;23.40;60.00
28763;DHT22;15918;51.270;6.522;2022-08-19T05:06:57;23.40;60.00
28763;DHT22;15918;51.270;6.522;2022-08-19T05:09:22;23.40;60.10
28763;DHT22;15918;51.270;6.522;2022-08-19T05:11:48;23.40;60.10
28763;DHT22;15918;51.270;6.522;2022-08-19T05:14:15;23.40;60.20
28763;DHT22;15918;51.270;6.522;2022-08-19T05:16:40;23.40;60.30
28763;DHT22;15918;51.270;6.522;2022-08-19T05:19:06;23.40;60.40
28763;DHT22;15918;51.270;6.522;2022-08-19T05:21:51;23.40;60.40
28763;DHT22;15918;51.270;6.522;2022-08-19T05:24:36;23.30;60.50
28763;DHT22;15918;51.270;6.522;2022-08-19T05:27:02;23.30;60.70
28763;DHT22;15918;51.270;6.522;2022-08-19T05:29:30;23.30;60.80
28763;DHT22;15918;51.270;6.522;2022-08-19T05:31:57;23.30;60.90
28763;DHT22;15918;51.270;6.522;2022-08-19T05:34:24;23.30;61.10
28763;DHT22;15918;51.270;6.522;2022-08-19T05:36:54;23.30;61.10
28763;DHT22;15918;51.270;6.522;2022-08-19T05:39:24;23.30;61.30
28763;DHT22;15918;51.270;6.522;2022-08-19T05:41:52;23.30;61.40
28763;DHT22;15918;51.270;6.522;2022-08-19T05:44:19;23.40;61.60
28763;DHT22;15918;51.270;6.522;2022-08-19T05:46:46;23.30;61.50
28763;DHT22;15918;51.270;6.522;2022-08-19T05:49:14;23.40;61.60
28763;DHT22;15918;51.270;6.522;2022-08-19T05:51:40;23.30;61.60
28763;DHT22;15918;51.270;6.522;2022-08-19T05:54:06;23.30;61.60
28763;DHT22;15918;51.270;6.522;2022-08-19T05:56:33;23.40;61.80
28763;DHT22;15918;51.270;6.522;2022-08-19T05:59:02;23.40;62.00
28763;DHT22;15918;51.270;6.522;2022-08-19T06:01:28;23.40;62.00
28763;DHT22;15918;51.270;6.522;2022-08-19T06:03:53;23.40;62.10
28763;DHT22;15918;51.270;6.522;2022-08-19T06:06:19;23.40;62.00
28763;DHT22;15918;51.270;6.522;2022-08-19T06:08:45;23.50;61.90
28763;DHT22;15918;51.270;6.522;2022-08-19T06:11:24;23.40;62.00
28763;DHT22;15918;51.270;6.522;2022-08-19T06:13:52;23.50;62.10
28763;DHT22;15918;51.270;6.522;2022-08-19T06:16:20;23.60;62.20
28763;DHT22;15918;51.270;6.522;2022-08-19T06:18:48;23.50;62.40
28763;DHT22;15918;51.270;6.522;2022-08-19T06:21:14;23.50;62.30
28763;DHT22;15918;51.270;6.522;2022-08-19T06:23:39;23.60;62.50
28763;DHT22;15918;51.270;6.522;2022-08-19T06:26:05;23.60;62.50
28763;DHT22;15918;51.270;6.522;2022-08-19T06:28:31;23.60;63.00
28763;DHT22;15918;51.270;6.522;2022-08-19T06:30:58;23.60;62.20
28763;DHT22;15918;51.270;6.522;2022-08-19T06:33:25;23.70;61.90
28763;DHT22;15918;51.270;6.522;2022-08-19T06:35:50;23.70;62.30
28763;DHT22;15918;51.270;6.522;2022-08-19T06:38:16;23.80;62.10
28763;DHT22;15918;51.270;6.522;2022-08-19T06:40:42;23.80;61.80
28763;DHT22;15918;51.270;6.522;2022-08-19T06:43:08;23.80;61.90
28763;DHT22;15918;51.270;6.522;2022-08-19T06:45:33;23.80;62.20
28763;DHT22;15918;51.270;6.522;2022-08-19T06:48:02;23.80;62.20
28763;DHT22;15918;51.270;6.522;2022-08-19T06:50:27;23.90;63.10
28763;DHT22;15918;51.270;6.522;2022-08-19T06:52:53;23.90;62.40
28763;DHT22;15918;51.270;6.522;2022-08-19T06:55:19;23.90;62.40
28763;DHT22;15918;51.270;6.522;2022-08-19T06:57:45;23.90;62.60
28763;DHT22;15918;51.270;6.522;2022-08-19T07:00:11;24.00;62.70
28763;DHT22;15918;51.270;6.522;2022-08-19T07:02:41;24.00;62.70
28763;DHT22;15918;51.270;6.522;2022-08-19T07:05:07;24.00;62.90
28763;DHT22;15918;51.270;6.522;2022-08-19T07:07:33;24.00;62.70
28763;DHT22;15918;51.270;6.522;2022-08-19T07:10:00;24.10;62.60
28763;DHT22;15918;51.270;6.522;2022-08-19T07:12:30;24.10;62.40
28763;DHT22;15918;51.270;6.522;2022-08-19T07:14:59;24.10;62.20
28763;DHT22;15918;51.270;6.522;2022-08-19T07:17:26;24.10;62.20
28763;DHT22;15918;51.270;6.522;2022-08-19T07:19:52;24.20;62.20
28763;DHT22;15918;51.270;6.522;2022-08-19T07:22:17;24.20;62.00
28763;DHT22;15918;51.270;6.522;2022-08-19T07:24:46;24.30;62.00
28763;DHT22;15918;51.270;6.522;2022-08-19T07:27:13;24.30;62.00
28763;DHT22;15918;51.270;6.522;2022-08-19T07:29:39;24.30;61.70
28763;DHT22;15918;51.270;6.522;2022-08-19T07:32:06;24.30;61.60
28763;DHT22;15918;51.270;6.522;2022-08-19T07:34:32;24.30;61.60
28763;DHT22;15918;51.270;6.522;2022-08-19T07:37:03;24.30;61.80
28763;DHT22;15918;51.270;6.522;2022-08-19T07:39:31;24.40;62.20
28763;DHT22;15918;51.270;6.522;2022-08-19T07:41:59;24.40;62.20
28763;DHT22;15918;51.270;6.522;2022-08-19T07:44:25;24.30;62.30
28763;DHT22;15918;51.270;6.522;2022-08-19T07:46:54;24.30;62.30
28763;DHT22;15918;51.270;6.522;2022-08-19T07:49:21;24.40;62.10
28763;DHT22;15918;51.270;6.522;2022-08-19T07:51:53;24.40;62.00
28763;DHT22;15918;51.270;6.522;2022-08-19T07:54:20;24.40;62.90
28763;DHT22;15918;51.270;6.522;2022-08-19T07:56:46;24.40;62.10
28763;DHT22;15918;51.270;6.522;2022-08-19T07:59:12;24.40;62.20
28763;DHT22;15918;51.270;6.522;2022-08-19T08:01:38;24.40;62.10
28763;DHT22;15918;51.270;6.522;2022-08-19T08:04:06;24.50;62.10
28763;DHT22;15918;51.270;6.522;2022-08-19T08:06:50;24.50;62.10
28763;DHT22;15918;51.270;6.522;2022-08-19T08:09:37;24.50;62.00
28763;DHT22;15918;51.270;6.522;2022-08-19T08:12:15;24.50;62.10
28763;DHT22;15918;51.270;6.522;2022-08-19T08:14:48;24.50;62.00
28763;DHT22;15918;51.270;6.522;2022-08-19T08:17:15;24.50;61.90
28763;DHT22;15918;51.270;6.522;2022-08-19T08:19:41;24.50;61.80
28763;DHT22;15918;51.270;6.522;2022-08-19T08:22:10;24.60;61.70
28763;DHT22;15918;51.270;6.522;2022-08-19T08:25:05;24.60;61.50
28763;DHT22;15918;51.270;6.522;2022-08-19T08:27:31;24.60;61.40
28763;DHT22;15918;51.270;6.522;2022-08-19T08:30:00;24.70;61.40
28763;DHT22;15918;51.270;6.522;2022-08-19T08:32:25;24.60;61.20
28763;DHT22;15918;51.270;6.522;2022-08-19T08:34:52;24.70;61.30
28763;DHT22;15918;51.270;6.522;2022-08-19T08:37:18;24.60;61.20
28763;DHT22;15918;51.270;6.522;2022-08-19T08:39:43;24.70;61.20
28763;DHT22;15918;51.270;6.522;2022-08-19T08:42:20;24.70;61.10
28763;DHT22;15918;51.270;6.522;2022-08-19T08:45:01;24.70;60.80
28763;DHT22;15918;51.270;6.522;2022-08-19T08:47:32;24.80;60.80
28763;DHT22;15918;51.270;6.522;2022-08-19T08:50:28;24.80;60.40
28763;DHT22;15918;51.270;6.522;2022-08-19T08:52:57;24.80;60.00
28763;DHT22;15918;51.270;6.522;2022-08-19T08:55:26;24.80;60.00
28763;DHT22;15918;51.270;6.522;2022-08-19T08:58:16;24.80;59.60
28763;DHT22;15918;51.270;6.522;2022-08-19T09:00:46;24.90;59.40
28763;DHT22;15918;51.270;6.522;2022-08-19T09:03:19;24.90;59.40
28763;DHT22;15918;51.270;6.522;2022-08-19T09:06:01;24.90;59.30
28763;DHT22;15918;51.270;6.522;2022-08-19T09:08:53;24.90;59.30
28763;DHT22;15918;51.270;6.522;2022-08-19T09:16:58;24.90;59.10
28763;DHT22;15918;51.270;6.522;2022-08-19T09:19:25;24.90;59.00
28763;DHT22;15918;51.270;6.522;2022-08-19T09:21:50;25.00;59.00
28763;DHT22;15918;51.270;6.522;2022-08-19T09:24:16;25.00;58.90
28763;DHT22;15918;51.270;6.522;2022-08-19T09:26:41;25.00;58.90
28763;DHT22;15918;51.270;6.522;2022-08-19T09:29:09;25.00;58.90
28763;DHT22;15918;51.270;6.522;2022-08-19T09:31:35;25.10;58.90
28763;DHT22;15918;51.270;6.522;2022-08-19T09:34:01;25.10;58.80
28763;DHT22;15918;51.270;6.522;2022-08-19T09:36:29;25.20;58.80
28763;DHT22;15918;51.270;6.522;2022-08-19T09:38:58;25.10;58.70
28763;DHT22;15918;51.270;6.522;2022-08-19T09:41:24;25.20;58.60
28763;DHT22;15918;51.270;6.522;2022-08-19T09:43:52;25.20;58.50
28763;DHT22;15918;51.270;6.522;2022-08-19T09:46:21;25.20;58.40
28763;DHT22;15918;51.270;6.522;2022-08-19T09:48:48;25.20;58.30
28763;DHT22;15918;51.270;6.522;2022-08-19T09:51:17;25.20;58.60
28763;DHT22;15918;51.270;6.522;2022-08-19T09:53:44;25.20;57.90
28763;DHT22;15918;51.270;6.522;2022-08-19T09:56:11;25.20;57.80
28763;DHT22;15918;51.270;6.522;2022-08-19T09:58:38;25.30;57.70
28763;DHT22;15918;51.270;6.522;2022-08-19T10:01:05;25.30;57.60
28763;DHT22;15918;51.270;6.522;2022-08-19T10:03:32;25.30;57.50
28763;DHT22;15918;51.270;6.522;2022-08-19T10:06:01;25.30;57.50
28763;DHT22;15918;51.270;6.522;2022-08-19T10:08:30;25.30;57.50
28763;DHT22;15918;51.270;6.522;2022-08-19T10:10:56;25.40;57.60
28763;DHT22;15918;51.270;6.522;2022-08-19T10:13:25;25.40;57.50
28763;DHT22;15918;51.270;6.522;2022-08-19T10:15:54;25.40;57.40
28763;DHT22;15918;51.270;6.522;2022-08-19T10:18:22;25.40;57.40
28763;DHT22;15918;51.270;6.522;2022-08-19T10:20:49;25.40;57.40
28763;DHT22;15918;51.270;6.522;2022-08-19T10:23:16;25.50;57.40
28763;DHT22;15918;51.270;6.522;2022-08-19T10:25:42;25.50;57.40
28763;DHT22;15918;51.270;6.522;2022-08-19T10:28:09;25.60;57.40
28763;DHT22;15918;51.270;6.522;2022-08-19T10:30:40;25.60;57.40
28763;DHT22;15918;51.270;6.522;2022-08-19T10:33:07;25.60;57.30
28763;DHT22;15918;51.270;6.522;2022-08-19T10:35:32;25.60;57.30
28763;DHT22;15918;51.270;6.522;2022-08-19T10:37:58;25.60;57.10
28763;DHT22;15918;51.270;6.522;2022-08-19T10:40:25;25.70;57.20
28763;DHT22;15918;51.270;6.522;2022-08-19T10:42:52;25.70;57.10
28763;DHT22;15918;51.270;6.522;2022-08-19T10:45:18;25.70;57.00
28763;DHT22;15918;51.270;6.522;2022-08-19T10:47:43;25.80;56.90
28763;DHT22;15918;51.270;6.522;2022-08-19T10:50:09;25.80;56.80
28763;DHT22;15918;51.270;6.522;2022-08-19T10:52:53;25.90;56.80
28763;DHT22;15918;51.270;6.522;2022-08-19T10:55:22;25.90;56.70
28763;DHT22;15918;51.270;6.522;2022-08-19T10:58:18;25.90;56.50
28763;DHT22;15918;51.270;6.522;2022-08-19T11:00:53;25.90;56.40
28763;DHT22;15918;51.270;6.522;2022-08-19T11:03:20;25.90;56.50
28763;DHT22;15918;51.270;6.522;2022-08-19T11:05:45;26.00;56.50
28763;DHT22;15918;51.270;6.522;2022-08-19T11:08:11;26.00;56.30
28763;DHT22;15918;51.270;6.522;2022-08-19T11:10:41;26.00;56.20
28763;DHT22;15918;51.270;6.522;2022-08-19T11:13:06;26.00;56.00
28763;DHT22;15918;51.270;6.522;2022-08-19T11:15:32;26.00;56.10
28763;DHT22;15918;51.270;6.522;2022-08-19T11:17:58;26.00;55.80
28763;DHT22;15918;51.270;6.522;2022-08-19T11:20:24;26.10;56.00
28763;DHT22;15918;51.270;6.522;2022-08-19T11:22:52;26.00;55.50
28763;DHT22;15918;51.270;6.522;2022-08-19T11:25:19;26.10;55.30
28763;DHT22;15918;51.270;6.522;2022-08-19T11:27:44;26.10;55.00
28763;DHT22;15918;51.270;6.522;2022-08-19T11:30:13;26.10;55.00
28763;DHT22;15918;51.270;6.522;2022-08-19T11:32:42;26.10;54.90
28763;DHT22;15918;51.270;6.522;2022-08-19T11:35:08;26.10;54.80
28763;DHT22;15918;51.270;6.522;2022-08-19T11:37:34;26.10;54.60
28763;DHT22;15918;51.270;6.522;2022-08-19T11:40:04;26.20;54.60
28763;DHT22;15918;51.270;6.522;2022-08-19T11:42:30;26.20;54.50
28763;DHT22;15918;51.270;6.522;2022-08-19T11:45:14;26.20;54.30
28763;DHT22;15918;51.270;6.522;2022-08-19T11:47:39;26.20;54.30
28763;DHT22;15918;51.270;6.522;2022-08-19T11:50:05;26.20;54.10
28763;DHT22;15918;51.270;6.522;2022-08-19T11:52:31;26.20;54.00
28763;DHT22;15918;51.270;6.522;2022-08-19T11:54:57;26.30;53.90
28763;DHT22;15918;51.270;6.522;2022-08-19T11:57:22;26.30;53.80
28763;DHT22;15918;51.270;6.522;2022-08-19T11:59:50;26.30;53.80
28763;DHT22;15918;51.270;6.522;2022-08-19T12:02:17;26.30;53.70
28763;DHT22;15918;51.270;6.522;2022-08-19T12:04:42;26.30;53.40
28763;DHT22;15918;51.270;6.522;2022-08-19T12:07:08;26.30;53.40
28763;DHT22;15918;51.270;6.522;2022-08-19T12:09:33;26.40;53.30
28763;DHT22;15918;51.270;6.522;2022-08-19T12:12:00;26.40;53.10
28763;DHT22;15918;51.270;6.522;2022-08-19T12:14:27;26.40;53.00
28763;DHT22;15918;51.270;6.522;2022-08-19T12:16:55;26.40;52.90
28763;DHT22;15918;51.270;6.522;2022-08-19T12:19:20;26.40;52.80
28763;DHT22;15918;51.270;6.522;2022-08-19T12:21:46;26.40;52.50
28763;DHT22;15918;51.270;6.522;2022-08-19T12:24:12;26.40;52.30
28763;DHT22;15918;51.270;6.522;2022-08-19T12:26:38;26.50;52.30
28763;DHT22;15918;51.270;6.522;2022-08-19T12:29:04;26.50;52.20
28763;DHT22;15918;51.270;6.522;2022-08-19T12:31:29;26.50;52.20
28763;DHT22;15918;51.270;6.522;2022-08-19T12:33:56;26.50;52.20
28763;DHT22;15918;51.270;6.522;2022-08-19T12:36:22;26.50;52.10
28763;DHT22;15918;51.270;6.522;2022-08-19T12:38:48;26.60;52.00
28763;DHT22;15918;51.270;6.522;2022-08-19T12:41:15;26.60;51.90
28763;DHT22;15918;51.270;6.522;2022-08-19T12:43:43;26.60;52.50
28763;DHT22;15918;51.270;6.522;2022-08-19T12:46:09;26.70;51.80
28763;DHT22;15918;51.270;6.522;2022-08-19T12:48:35;26.60;51.50
28763;DHT22;15918;51.270;6.522;2022-08-19T12:51:06;26.60;51.30
28763;DHT22;15918;51.270;6.522;2022-08-19T12:53:32;26.70;51.00
28763;DHT22;15918;51.270;6.522;2022-08-19T12:55:58;26.70;50.90
28763;DHT22;15918;51.270;6.522;2022-08-19T12:58:25;26.70;50.70
28763;DHT22;15918;51.270;6.522;2022-08-19T13:00:51;26.70;50.40
28763;DHT22;15918;51.270;6.522;2022-08-19T13:03:17;26.70;50.90
28763;DHT22;15918;51.270;6.522;2022-08-19T13:05:42;26.70;50.30
28763;DHT22;15918;51.270;6.522;2022-08-19T13:08:08;26.80;50.40
28763;DHT22;15918;51.270;6.522;2022-08-19T13:10:35;26.80;50.10
28763;DHT22;15918;51.270;6.522;2022-08-19T13:13:04;26.80;50.10
28763;DHT22;15918;51.270;6.522;2022-08-19T13:15:34;26.80;50.20
28763;DHT22;15918;51.270;6.522;2022-08-19T13:18:00;26.80;50.30
28763;DHT22;15918;51.270;6.522;2022-08-19T13:20:26;26.80;50.40
28763;DHT22;15918;51.270;6.522;2022-08-19T13:22:52;26.80;50.50
28763;DHT22;15918;51.270;6.522;2022-08-19T13:25:18;26.80;50.30
28763;DHT22;15918;51.270;6.522;2022-08-19T13:27:45;26.90;50.10
28763;DHT22;15918;51.270;6.522;2022-08-19T13:30:13;26.90;50.00
28763;DHT22;15918;51.270;6.522;2022-08-19T13:32:57;26.90;50.10
28763;DHT22;15918;51.270;6.522;2022-08-19T13:35:50;26.90;50.20
28763;DHT22;15918;51.270;6.522;2022-08-19T13:38:21;26.90;50.10
28763;DHT22;15918;51.270;6.522;2022-08-19T13:40:48;26.90;50.20
28763;DHT22;15918;51.270;6.522;2022-08-19T13:43:16;26.90;50.20
28763;DHT22;15918;51.270;6.522;2022-08-19T13:45:43;26.90;50.10
28763;DHT22;15918;51.270;6.522;2022-08-19T13:48:09;27.00;50.10
28763;DHT22;15918;51.270;6.522;2022-08-19T13:50:39;27.00;50.10
28763;DHT22;15918;51.270;6.522;2022-08-19T13:53:07;27.00;50.00
28763;DHT22;15918;51.270;6.522;2022-08-19T13:55:33;27.00;50.60
28763;DHT22;15918;51.270;6.522;2022-08-19T13:58:00;27.00;50.00
28763;DHT22;15918;51.270;6.522;2022-08-19T14:00:29;27.00;49.90
28763;DHT22;15918;51.270;6.522;2022-08-19T14:02:56;27.00;49.80
28763;DHT22;15918;51.270;6.522;2022-08-19T14:05:24;27.00;49.90
28763;DHT22;15918;51.270;6.522;2022-08-19T14:07:50;27.00;50.00
28763;DHT22;15918;51.270;6.522;2022-08-19T14:10:16;27.00;50.10
28763;DHT22;15918;51.270;6.522;2022-08-19T14:12:42;27.10;50.20
28763;DHT22;15918;51.270;6.522;2022-08-19T14:15:09;27.00;50.10
28763;DHT22;15918;51.270;6.522;2022-08-19T14:17:38;27.10;50.10
28763;DHT22;15918;51.270;6.522;2022-08-19T14:20:06;27.10;50.00
28763;DHT22;15918;51.270;6.522;2022-08-19T14:22:35;27.00;49.90
28763;DHT22;15918;51.270;6.522;2022-08-19T14:25:01;27.10;49.80
28763;DHT22;15918;51.270;6.522;2022-08-19T14:27:27;27.00;49.60
28763;DHT22;15918;51.270;6.522;2022-08-19T14:29:53;27.00;49.40
28763;DHT22;15918;51.270;6.522;2022-08-19T14:32:20;27.10;49.50
28763;DHT22;15918;51.270;6.522;2022-08-19T14:34:47;27.10;49.50
28763;DHT22;15918;51.270;6.522;2022-08-19T14:37:14;27.10;49.60
28763;DHT22;15918;51.270;6.522;2022-08-19T14:39:43;27.10;49.70
28763;DHT22;15918;51.270;6.522;2022-08-19T14:42:10;27.00;49.70
28763;DHT22;15918;51.270;6.522;2022-08-19T14:44:37;27.00;49.90
28763;DHT22;15918;51.270;6.522;2022-08-19T14:47:03;27.10;50.00
28763;DHT22;15918;51.270;6.522;2022-08-19T14:49:29;27.10;50.20
28763;DHT22;15918;51.270;6.522;2022-08-19T14:51:54;27.00;50.20
28763;DHT22;15918;51.270;6.522;2022-08-19T14:54:20;27.10;50.40
28763;DHT22;15918;51.270;6.522;2022-08-19T14:56:46;27.10;50.50
28763;DHT22;15918;51.270;6.522;2022-08-19T14:59:13;27.10;50.60
28763;DHT22;15918;51.270;6.522;2022-08-19T15:01:38;27.10;50.70
28763;DHT22;15918;51.270;6.522;2022-08-19T15:04:04;27.10;50.80
28763;DHT22;15918;51.270;6.522;2022-08-19T15:06:29;27.10;50.90
28763;DHT22;15918;51.270;6.522;2022-08-19T15:08:57;27.10;51.00
28763;DHT22;15918;51.270;6.522;2022-08-19T15:11:25;27.10;51.10
28763;DHT22;15918;51.270;6.522;2022-08-19T15:13:53;27.10;51.20
28763;DHT22;15918;51.270;6.522;2022-08-19T15:16:21;27.10;51.20
28763;DHT22;15918;51.270;6.522;2022-08-19T15:18:49;27.10;51.90
28763;DHT22;15918;51.270;6.522;2022-08-19T15:21:15;27.10;51.30
28763;DHT22;15918;51.270;6.522;2022-08-19T15:23:44;27.10;51.40
28763;DHT22;15918;51.270;6.522;2022-08-19T15:26:10;27.00;51.40
28763;DHT22;15918;51.270;6.522;2022-08-19T15:28:36;27.10;51.60
28763;DHT22;15918;51.270;6.522;2022-08-19T15:31:03;27.10;51.70
28763;DHT22;15918;51.270;6.522;2022-08-19T15:33:31;27.10;51.70
28763;DHT22;15918;51.270;6.522;2022-08-19T15:35:57;27.00;51.70
28763;DHT22;15918;51.270;6.522;2022-08-19T15:38:23;27.00;51.80
28763;DHT22;15918;51.270;6.522;2022-08-19T15:40:51;27.00;51.90
28763;DHT22;15918;51.270;6.522;2022-08-19T15:43:17;27.00;51.90